Share

Saint Marie, MT

City Center - AA7AS (KMTGLASG4) Elev 2090 ft | 48.20 °N, 106.64 °W | Change Station

Current weather conditions updated 11 minutes ago

Clear
Clear
40.1 °F
Feels Like 40 °F
N
1.1
Wind Variable Wind from NW
Sunrise 6:07 AM
Sunset 8:04 PM
Moon Waning Gibbous

Tomorrow is forecast to be nearly the same temperature as today.

Pressure 30.12 in
Visibility 10.0 miles
Clouds Clear
Windchill 40 °F
Dew Point 28 °F
Humidity 62%
Rainfall 0.00 in
Snow Depth Not available.
UV 0 out of 16
Pollen 10.50 out of 12
Air Quality Not available.
Flu Activity Sporadic
METAR KGGW 210453Z AUTO 33004KT 10SM CLR 07/M03 A3010 RMK AO2 SLP198 T00721033 TSNO $

More Conditions Fewer Conditions

Pressure 30.12 in
Visibility 10.0 miles
Clouds Clear
Windchill 40 °F
Dew Point 28 °F
Humidity 62%
Rainfall 0.00 in
Snow Depth Not available.
UV 0 out of 16
Pollen 10.50 out of 12
Air Quality Not available.
Flu Activity Sporadic
METAR KGGW 210453Z AUTO 33004KT 10SM CLR 07/M03 A3010 RMK AO2 SLP198 T00721033 TSNO $

More Conditions Fewer Conditions

10-Day Weather Forecast

Almanac

Astronomy

Apr. 20, 2014 Rise Set
Actual Time 6:07 AM MDT 8:04 PM MDT
Civil Twilight 5:33 AM MDT 8:38 PM MDT
Nautical Twilight 4:52 AM MDT 9:19 PM MDT
Astronomical Twilight 4:07 AM MDT 10:05 PM MDT
Moon 12:56 AM MDT (4/20) 10:21 AM MDT (4/20)
Length of Visible Light 15h 04m
Length of Day
13h 57m
Tomorrow will be 3m 18s longer.
Waning Gibbous, 62% of the Moon is Illuminated
Apr 21
Waning Gibbous
Apr 22
Last Quarter
Apr 29
New
May 6
First Quarter
May 14
Full

Yesterday's Extremes

State Highs State Lows

Community

  • Snowy Robin
    Snowy Robin
  • Sun Pillar and Geese
    Sun Pillar and Geese
  • Showers on the Way
    Showers on the Way
  • Easter Morning Fog
    Easter Morning Fog
  • Easter Dance
    Easter Dance

WunderPhotos

Upload Photos

1,703,563 photos uploaded!

WunderBlogs® & News

Nearby

Snow Depth

Station Depth Elevation
Rocky Boy 3 in 4700 ft
Crystal Lake 55 in 6050 ft
Daisy Peak 49 in 7600 ft
Spur Park 89 in 8100 ft
Deadman Creek 39 in 6450 ft

Coastal Water Temperatures

Place Temperature
No Stations Reporting

Earthquake Activity

City Distance Mag. Time & Date
No recent earthquake activity has been reported nearby.
Minimum magnitude displayed is 2.5.

Nearby Weather Stations

Station Location Temp. Windchill Dew Point Humidity Wind Precip. Elev Updated Type
City Center - AA7AS, Glasgow, MT 40.1 °F 40 °F 28 °F 62% NW  at  1.1 mph - / hr 2090 ft 11:33 PM MDT Normal
MesoWest GLASGOW , Saint Marie, MT 41 °F 41 °F 27 °F 58% WNW  at  - 0.00 in / hr 2083 ft 11:00 PM MDT MADIS
nashua, Nashua, MT 33.6 °F 29 °F 20 °F 58% WSW  at  5.0 mph 0.00 in / hr 2156 ft 11:00 PM MDT Normal
MesoWest St. Marie Montana Aviation Rese, Glasgow, MT 45 °F 41 °F 26 °F 46% WNW  at  7 mph 0.00 in / hr 2763 ft 11:00 PM MDT MADIS

Show More Stations Show Fewer Stations

What do you think?

We're not finished. Please let us know what you like, what you don't like, and what you are still missing.